NCAR-RAP Real-Time Weather Data

Output produced by METARs form (26 May 2022  07:51 UTC)
found at http://weather.rap.ucar.edu/surface/
 
KCHS 260741Z 10009KT 10SM FEW015 SCT035 BKN042 23/22 A3015 RMK AO2 T02330217
KCHS 260656Z 11007KT 10SM FEW009 FEW022 BKN028 23/22 A3015 RMK AO2 SLP210 T02330217
KCHS 260556Z 11008KT 10SM FEW009 FEW012 23/21 A3016 RMK AO2 SLP212 T02330211 10250 20228 57007
KCHS 260456Z 10006KT 10SM FEW009 23/22 A3017 RMK AO2 SLP216 T02330217 402940194
KCHS 260449Z 10007KT 10SM FEW009 23/22 A3017 RMK AO2 T02330217
KCHS 260356Z 09009KT 10SM BKN009 23/22 A3017 RMK AO2 SLP215 T02330217
KCHS 260351Z 09009KT 10SM BKN009 23/22 A3017 RMK AO2
KCHS 260334Z 09010KT 10SM SCT010 23/21 A3017 RMK AO2 T02330211
KCHS 260256Z 10008KT 10SM BKN012 23/21 A3018 RMK AO2 SLP219 T02330211 51005
KCHS 260203Z 10008KT 10SM BKN012 23/21 A3018 RMK AO2 T02330211
KCHS 260156Z 09010KT 10SM BKN015 23/21 A3018 RMK AO2 SLP217 T02330211
KCHS 260154Z 09009KT 10SM BKN015 23/21 A3017 RMK AO2
KCHS 260056Z 09010KT 10SM FEW018 FEW025 24/21 A3017 RMK AO2 SLP214 T02390211
KCHS 252356Z 11010KT 10SM SCT020 SCT035 25/21 A3016 RMK AO2 SLP213 T02500211 10294 20250 53010
KCHS 252256Z 12011KT 10SM FEW025 SCT033 SCT040 26/21 A3015 RMK AO2 SLP210 T02560211
KCHS 252156Z 11009KT 10SM FEW025 SCT028 BKN035 27/21 A3014 RMK AO2 SLP204 T02670211
KCHS 252056Z 10010KT 10SM SCT030 BKN045 27/21 A3013 RMK AO2 SLP203 T02720206 56018
KCHS 251956Z 11010KT 10SM SCT030 BKN040 28/21 A3015 RMK AO2 SLP208 T02780206
KCHS 251856Z 14010G16KT 10SM SCT030 BKN045 29/21 A3017 RMK AO2 SLP216 T02890211
KCHS 251756Z VRB05KT 10SM SCT030 BKN040 BKN250 28/21 A3019 RMK AO2 SLP221 T02830206 10289 20211 58005
KCHS 251656Z 09006KT 10SM SCT025 BKN250 27/21 A3020 RMK AO2 SLP224 SCT V BKN T02720206
KCHS 251628Z 08007KT 10SM SCT020 BKN250 27/21 A3020 RMK AO2 SCT V BKN T02720211
KCHS 251556Z VRB05KT 10SM BKN020 27/21 A3020 RMK AO2 SLP225 T02670206
KCHS 251545Z 09006KT 10SM BKN020 26/20 A3020 RMK AO2 T02610200
KCHS 251456Z 10006KT 10SM SCT017 BKN120 BKN250 24/19 A3020 RMK AO2 SLP226 T02440189 51006
KCHS 251356Z VRB06KT 10SM FEW020 SCT150 BKN250 24/18 A3019 RMK AO2 SLP223 T02390183
KCHS 251256Z 06007KT 10SM FEW016 SCT120 BKN250 22/18 A3019 RMK AO2 SLP223 T02220178
KCHS 251156Z 06007KT 10SM FEW018 FEW030 BKN200 21/17 A3018 RMK AO2 SLP220 60000 T02110172 10239 20194 52016
KCHS 251056Z 03005KT 10SM FEW020 SCT060 SCT200 20/17 A3017 RMK AO2 SLP215 T02000167
KCHS 251017Z 04005KT 10SM SCT020 SCT060 20/17 A3016 RMK AO2 T02000167
KCHS 250956Z 03007KT 10SM BKN020 BKN026 20/17 A3015 RMK AO2 SLP208 T02000172
KCHS 250944Z 03008KT 10SM BKN020 BKN026 21/17 A3015 RMK AO2 T02060172
KCHS 250856Z 04006KT 10SM FEW018 FEW060 21/18 A3013 RMK AO2 SLP204 60000 T02110183 53002
KCHS 250756Z 02009KT 10SM SCT018 BKN050 22/18 A3013 RMK AO2 RAE0659 SLP201 P0000 T02170183
KCHS 250745Z 02007KT 10SM SCT019 SCT030 22/19 A3013 RMK AO2 RAE0659 P0000 T02220189
KCHS 250656Z 01008KT 10SM -RA BKN022 BKN029 23/21 A3013 RMK AO2 RAB47 SLP204 P0000 T02280206
KCHS 250619Z 02007KT 10SM SCT015 BKN027 BKN035 23/22 A3013 RMK AO2 T02330217
KCHS 250556Z 01007KT 10SM BKN012 OVC040 24/22 A3013 RMK AO2 SLP202 T02390217 10267 20233 51003
KCHS 250533Z 01006KT 10SM BKN014 OVC048 24/23 A3013 RMK AO2 T02390228
KCHS 250456Z 00000KT 10SM FEW250 23/22 A3012 RMK AO2 SLP200 T02330222 403110228
KCHS 250356Z 17004KT 10SM FEW250 24/22 A3013 RMK AO2 SLP202 T02390222
KCHS 250256Z 18004KT 10SM FEW070 FEW250 24/22 A3012 RMK AO2 SLP198 T02440222 53014
KCHS 250156Z 16005KT 10SM FEW060 SCT250 24/22 A3010 RMK AO2 SLP192 T02440217
KCHS 250056Z 17007KT 10SM FEW060 BKN150 BKN250 26/21 A3008 RMK AO2 SLP185 T02560211
KCHS 242356Z 21006KT 10SM FEW035 FEW060 SCT150 BKN250 27/21 A3008 RMK AO2 SLP185 T02670206 10311 20267 53010
KCHS 242256Z 20010KT 10SM FEW035 FEW050 SCT150 SCT250 27/21 A3006 RMK AO2 SLP177 CB DSNT N T02720206
KCHS 242156Z 21013KT 10SM FEW035 SCT060 SCT250 29/20 A3004 RMK AO2 LTG DSNT N SLP173 CB DSNT N T02940200
KCHS 242056Z COR 21014KT 10SM SCT035 SCT060 SCT250 30/20 A3005 RMK AO2 LTG DSNT NE AND W SLP174 CB DSNT NE AND W T03000200 56012
KCHS 241956Z 19012KT 10SM SCT035 SCT065 BKN250 31/21 A3005 RMK AO2 LTG DSNT W SLP176 CB DSNT N AND W T03060211
KCHS 241856Z 18014KT 10SM SCT034 SCT075 BKN170 31/22 A3006 RMK AO2 LTG DSNT NW SLP180 CB DSNT NW T03060217
KCHS 241756Z 21012G20KT 10SM SCT040 SCT250 31/21 A3008 RMK AO2 SLP186 T03060206 10311 20244 58002
KCHS 241656Z 19010KT 10SM SCT040 SCT250 31/21 A3009 RMK AO2 SLP187 T03060206
KCHS 241556Z 19011KT 10SM BKN035 BKN055 29/20 A3009 RMK AO2 SLP188 T02890200
KCHS 241456Z 22009KT 10SM SCT030 SCT250 29/22 A3009 RMK AO2 SLP188 T02890217 51004
KCHS 241356Z 20010KT 10SM SCT025 BKN030 BKN250 28/22 A3009 RMK AO2 SLP188 T02780222
KCHS 241327Z 21010KT 10SM SCT018 BKN055 BKN250 27/22 A3009 RMK AO2 T02720222
KCHS 241302Z 22010KT 10SM BKN013 BKN045 26/22 A3009 RMK AO2 T02610222
KCHS 241256Z 24008KT 10SM SCT013 BKN045 26/22 A3009 RMK AO2 SLP187 SCT V BKN T02610222
KCHS 241156Z 20006KT 10SM FEW015 SCT120 BKN200 24/23 A3008 RMK AO2 SLP184 T02440228 10244 20228 52012
KCHS 241056Z 19005KT 10SM FEW050 FEW120 BKN250 23/22 A3007 RMK AO2 SLP181 T02280222
KCHS 240956Z 19005KT 10SM FEW050 FEW150 SCT250 23/22 A3005 RMK AO2 SLP174 T02280217
KCHS 240856Z 20005KT 10SM BKN250 23/22 A3004 RMK AO2 SLP171 T02330222 56007
KCHS 240756Z 19006KT 10SM BKN200 23/22 A3005 RMK AO2 SLP173 T02280222